Matthewstown, North Carolina
Current Conditions -  °F | °C
As of 3:54 AM on Thursday 27 Nov 2014 (Local Time) from KGSO Reporting Station
Overcast Overcast  
Wind Chill: 38°   Ceiling: 800
Heat Index: 41°   Visibility: 10mi
Dew Point: 39°   Wind: 5mph
Humidity: 93%   Direction: 120°ESE
Pressure: 29.99"   Gusts: NA
Location:  36.1188°N, 80.075°W
Report Text: KGSO 270854Z 12004KT 10SM OVC008 05/04 A2999 RMK AO2 CIG 007V011 SLP157 60000 T00500039 56008
Loading
Personal Weather Stations






























Interactive Weather Map New forecast layout! Learn more

10-Day Weather Forecast

Advertisements
Track Severe Weather on mobile